Terminal Aerodrome Forecast
Issued by NWS Portland, OR

Home | Current Version | Previous Version | Text Only | Print | Product List | Glossary On
Versions: 1 2 3 4 5 6 7 8 9 10 11 12 13 14 15 16
000
FTUS46 KPQR 281142
TAFHIO
TAF
KHIO 281142Z 2812/2912 16004KT P6SM -RA BKN025 OVC040
     FM281600 17010KT P6SM SCT025 BKN035 OVC060
     FM290300 18007KT P6SM -RA SCT025 OVC040
     FM290800 16012KT 5SM -RA OVC025=

USA.gov is the U.S. government's official web portal to all federal, state and local government web resources and services.